Time;durP1;ratioP1;P1;durP2;ratioP2;P2;SDS_P1;SDS_P2;PMS_P1;PMS_P2;Temp;Humidity;BMP_temperature;BMP_pressure;BME280_temperature;BME280_humidity;BME280_pressure;Samples;Min_cycle;Max_cycle;Signal;HPM_P1;HPM_P2
2021/12/16 00:09:00;;;;;;;31.90;18.80;;;;;;;4.62;100.00;102338.22;5080847;28;20023;-73
2021/12/16 00:30:12;;;;;;;36.15;19.65;;;;;;;4.62;100.00;102349.22;5084152;28;20044;-73
2021/12/16 00:33:00;;;;;;;31.95;18.65;;;;;;;4.63;100.00;102345.44;5065364;28;20118;-74
2021/12/16 00:35:23;;;;;;;32.53;19.30;;;;;;;4.62;100.00;102338.22;5082474;28;20098;-73
2021/12/16 00:37:49;;;;;;;31.95;20.05;;;;;;;4.63;100.00;102342.66;5083897;28;20040;-73
2021/12/16 00:40:14;;;;;;;30.48;19.50;;;;;;;4.63;100.00;102339.91;5064950;28;20031;-73
2021/12/16 00:45:29;;;;;;;33.80;19.25;;;;;;;4.65;100.00;102346.06;5096744;28;20024;-74
2021/12/16 00:54:09;;;;;;;33.30;20.10;;;;;;;4.68;100.00;102331.88;5079494;28;20027;-73
2021/12/16 00:55:56;;;;;;;32.38;19.45;;;;;;;4.70;100.00;102326.16;5066154;28;20099;-73
2021/12/16 00:58:37;;;;;;;37.05;19.90;;;;;;;4.69;100.00;102333.56;5062760;28;20024;-74
2021/12/16 01:01:16;;;;;;;36.58;21.38;;;;;;;4.68;100.00;102342.03;5080344;28;20032;-73
2021/12/16 01:04:25;;;;;;;35.83;20.15;;;;;;;4.66;100.00;102333.16;5064139;28;20036;-74
2021/12/16 01:50:59;;;;;;;35.42;24.95;;;;;;;4.76;100.00;102321.72;5093791;28;20388;-73
2021/12/16 01:56:25;;;;;;;34.78;20.83;;;;;;;4.80;100.00;102323.00;5081371;28;20035;-73
2021/12/16 01:58:52;;;;;;;34.30;20.52;;;;;;;4.81;100.00;102330.19;5062644;28;20059;-73
2021/12/16 02:01:21;;;;;;;33.03;20.52;;;;;;;4.83;100.00;102333.59;5061065;28;20055;-73
2021/12/16 02:03:53;;;;;;;34.05;20.38;;;;;;;4.84;100.00;102329.75;5076533;28;20028;-73
2021/12/16 02:06:41;;;;;;;32.08;20.60;;;;;;;4.86;100.00;102338.66;5082030;28;20114;-73
2021/12/16 02:09:25;;;;;;;35.10;24.33;;;;;;;4.85;100.00;102340.56;5064394;28;20388;-73
2021/12/16 02:35:43;;;;;;;49.03;25.95;;;;;;;4.85;100.00;102364.50;5082132;28;20043;-73
2021/12/16 02:38:11;;;;;;;47.03;24.80;;;;;;;4.83;100.00;102367.47;5090900;28;20488;-73
2021/12/16 02:40:37;;;;;;;46.13;24.20;;;;;;;4.84;100.00;102358.13;5081438;28;20019;-73
2021/12/16 02:48:32;;;;;;;48.38;26.10;;;;;;;4.82;100.00;102364.91;5086834;28;20149;-73
2021/12/16 02:51:00;;;;;;;45.22;24.08;;;;;;;4.82;100.00;102356.66;5067784;28;20024;-73
2021/12/16 02:53:25;;;;;;;;;;;;;;;4.81;100.00;102346.69;5063176;28;20035;-73
2021/12/16 02:55:52;;;;;;;47.50;25.10;;;;;;;4.82;100.00;102348.38;5080977;28;20360;-74
2021/12/16 02:58:17;;;;;;;;;;;;;;;4.82;100.00;102353.91;5047817;28;20032;-74
2021/12/16 03:00:43;;;;;;;;;;;;;;;4.84;100.00;102352.63;5079871;28;19930;-73
2021/12/16 03:03:09;;;;;;;45.15;24.08;;;;;;;4.83;100.00;102352.84;5079087;28;20368;-73
2021/12/16 03:05:35;;;;;;;43.65;24.88;;;;;;;4.84;100.00;102352.63;5066700;28;20032;-73
2021/12/16 03:08:00;;;;;;;47.35;26.15;;;;;;;4.84;100.00;102346.28;5067888;28;20039;-73
2021/12/16 03:13:00;;;;;;;45.90;24.48;;;;;;;4.85;100.00;102342.50;5094276;28;20040;-73
2021/12/16 03:20:55;;;;;;;;;;;;;;;4.90;100.00;102342.69;5068394;28;20050;-73
2021/12/16 03:36:31;;;;;;;41.20;22.48;;;;;;;4.88;100.00;102347.56;5080167;28;20036;-73
2021/12/16 03:39:03;;;;;;;41.90;22.15;;;;;;;4.89;100.00;102352.00;5048370;28;20024;-73
2021/12/16 03:41:30;;;;;;;36.17;20.70;;;;;;;4.87;100.00;102346.69;5059258;28;20036;-73
2021/12/16 03:43:58;;;;;;;43.05;23.85;;;;;;;4.87;100.00;102352.19;5084985;28;20066;-74
2021/12/16 03:46:29;;;;;;;39.35;22.58;;;;;;;4.87;100.00;102351.34;5079405;28;20039;-73
2021/12/16 03:49:14;;;;;;;39.28;21.92;;;;;;;4.82;100.00;102354.75;5063902;28;20098;-73
2021/12/16 03:52:06;;;;;;;39.53;22.48;;;;;;;4.82;100.00;102363.03;5082350;28;20028;-73
2021/12/16 03:54:34;;;;;;;38.35;21.50;;;;;;;4.84;100.00;102357.28;5071720;28;20040;-73
2021/12/16 03:57:00;;;;;;;39.03;22.00;;;;;;;4.82;100.00;102359.41;5078102;28;20027;-73
2021/12/16 03:59:28;;;;;;;39.28;22.05;;;;;;;4.84;100.00;102362.78;5084887;28;20444;-73
2021/12/16 04:01:54;;;;;;;36.83;20.92;;;;;;;4.85;100.00;102367.28;5094452;28;20036;-73
2021/12/16 04:04:20;;;;;;;36.10;21.08;;;;;;;4.84;100.00;102363.63;5079472;28;20134;-73
2021/12/16 04:06:45;;;;;;;36.75;21.60;;;;;;;4.85;100.00;102357.09;5066698;28;20056;-73
2021/12/16 04:09:12;;;;;;;36.05;20.15;;;;;;;4.87;100.00;102362.38;5065473;28;20518;-73
2021/12/16 04:11:42;;;;;;;35.13;20.13;;;;;;;4.89;100.00;102366.63;5062706;28;20027;-74
2021/12/16 04:14:12;;;;;;;37.22;21.30;;;;;;;4.90;100.00;102373.84;5065597;28;20037;-73
2021/12/16 04:16:40;;;;;;;35.08;19.85;;;;;;;4.90;100.00;102364.69;5080147;28;20089;-73
2021/12/16 04:19:09;;;;;;;33.80;19.80;;;;;;;4.88;100.00;102375.09;5079160;28;20051;-73
2021/12/16 04:21:37;;;;;;;34.10;19.20;;;;;;;4.90;100.00;102367.44;5085107;28;20030;-73
2021/12/16 04:24:03;;;;;;;33.38;20.23;;;;;;;4.88;100.00;102364.09;5061952;28;20027;-73
2021/12/16 04:26:28;;;;;;;34.55;19.80;;;;;;;4.91;100.00;102367.25;5045105;28;20028;-73
2021/12/16 04:28:54;;;;;;;33.97;20.27;;;;;;;4.90;100.00;102370.22;5064107;28;20149;-73
2021/12/16 04:31:19;;;;;;;33.25;19.67;;;;;;;4.91;100.00;102360.91;5061276;28;20039;-73
2021/12/16 04:33:45;;;;;;;31.83;18.58;;;;;;;4.90;100.00;102372.97;5065369;28;20032;-73
2021/12/16 04:36:11;;;;;;;34.05;20.10;;;;;;;4.90;100.00;102370.22;5079814;28;20047;-73
2021/12/16 04:38:37;;;;;;;37.20;20.58;;;;;;;4.91;100.00;102361.75;5078718;28;20024;-73
2021/12/16 04:41:04;;;;;;;35.17;20.60;;;;;;;4.90;100.00;102365.56;5078273;28;20024;-73
2021/12/16 04:43:38;;;;;;;34.13;19.45;;;;;;;4.91;100.00;102360.91;5062391;28;20032;-73
2021/12/16 04:46:06;;;;;;;36.67;21.27;;;;;;;4.91;100.00;102374.69;5065838;28;20046;-73
2021/12/16 04:48:31;;;;;;;34.97;19.05;;;;;;;4.92;100.00;102363.44;5067173;28;20040;-73
2021/12/16 04:50:57;;;;;;;37.25;21.50;;;;;;;4.91;100.00;102363.66;5077524;28;20039;-73
2021/12/16 04:53:22;;;;;;;41.22;22.35;;;;;;;4.92;100.00;102368.09;5078699;28;20028;-73
2021/12/16 04:55:48;;;;;;;38.83;22.05;;;;;;;4.92;100.00;102368.09;5061150;28;20570;-74
2021/12/16 04:58:14;;;;;;;36.47;21.63;;;;;;;4.90;100.00;102368.31;5067503;28;20035;-73
2021/12/16 05:00:39;;;;;;;36.55;21.35;;;;;;;4.94;100.00;102371.50;5081178;28;20028;-73
2021/12/16 05:03:05;;;;;;;40.60;22.48;;;;;;;4.93;100.00;102376.16;5058764;28;20038;-73
2021/12/16 05:05:30;;;;;;;40.33;22.88;;;;;;;4.94;100.00;102374.25;5094533;28;20024;-73
2021/12/16 05:07:56;;;;;;;35.33;21.10;;;;;;;4.95;100.00;102378.69;5077634;28;20044;-74
2021/12/16 05:10:22;;;;;;;38.40;22.85;;;;;;;4.97;100.00;102382.09;5070426;28;20033;-73
2021/12/16 05:12:54;;;;;;;35.05;21.25;;;;;;;4.98;100.00;102374.66;5080729;28;20017;-73
2021/12/16 05:15:21;;;;;;;37.88;22.33;;;;;;;4.99;100.00;102382.72;5076190;28;20025;-73
2021/12/16 05:17:50;;;;;;;36.95;21.27;;;;;;;5.00;100.00;102387.16;5065360;28;20039;-73
2021/12/16 05:20:24;;;;;;;41.28;22.88;;;;;;;5.01;100.00;102377.84;5065703;28;20382;-73
2021/12/16 05:25:51;;;;;;;35.72;21.25;;;;;;;5.03;100.00;102375.72;5081704;28;20085;-73
2021/12/16 05:28:18;;;;;;;38.90;21.83;;;;;;;5.02;100.00;102379.56;5101224;28;20024;-73
2021/12/16 05:30:43;;;;;;;35.67;21.58;;;;;;;5.04;100.00;102382.94;5026573;28;20044;-73
2021/12/16 05:33:09;;;;;;;38.20;22.02;;;;;;;5.04;100.00;102380.19;5074968;28;20051;-74
2021/12/16 05:35:34;;;;;;;34.10;20.30;;;;;;;5.06;100.00;102378.06;5039952;28;20113;-73
2021/12/16 05:38:00;;;;;;;37.25;21.52;;;;;;;5.07;100.00;102384.41;5036572;28;20035;-73
2021/12/16 05:40:26;;;;;;;33.92;20.92;;;;;;;5.09;100.00;102387.81;5046200;28;20529;-73
2021/12/16 05:42:53;;;;;;;33.03;20.60;;;;;;;5.10;100.00;102384.84;5056599;28;20030;-73
2021/12/16 05:45:19;;;;;;;32.55;19.90;;;;;;;5.11;100.00;102385.69;5047746;28;20024;-73
2021/12/16 05:47:44;;;;;;;34.75;21.65;;;;;;;5.09;100.00;102388.66;5070210;28;20040;-73
2021/12/16 05:50:10;;;;;;;33.75;20.98;;;;;;;5.10;100.00;102395.88;5062895;28;20028;-73
2021/12/16 05:52:36;;;;;;;35.28;20.88;;;;;;;5.10;100.00;102395.88;5044973;28;20500;-73
2021/12/16 05:55:03;;;;;;;34.65;21.65;;;;;;;5.12;100.00;102398.38;5055196;28;20481;-74
2021/12/16 05:57:28;;;;;;;36.60;21.08;;;;;;;5.11;100.00;102400.31;5048254;28;20023;-73
2021/12/16 05:59:54;;;;;;;33.28;19.92;;;;;;;5.12;100.00;102393.72;5047335;28;20028;-73
2021/12/16 06:02:19;;;;;;;33.67;20.50;;;;;;;5.13;100.00;102395.44;5029557;28;20035;-73
2021/12/16 06:04:45;;;;;;;39.15;20.33;;;;;;;5.15;100.00;102404.34;5061265;28;20025;-73
2021/12/16 06:07:10;;;;;;;39.35;22.17;;;;;;;5.14;100.00;102407.31;5045713;28;20111;-73
2021/12/16 06:09:36;;;;;;;34.53;21.15;;;;;;;5.17;100.00;102411.53;5033283;28;20036;-73
2021/12/16 06:12:01;;;;;;;37.13;20.83;;;;;;;5.18;100.00;102405.81;5044969;28;20028;-73
2021/12/16 06:27:45;;;;;;;36.30;21.55;;;;;;;5.18;100.00;102407.72;5062695;28;20035;-73
2021/12/16 06:30:13;;;;;;;39.70;22.45;;;;;;;5.17;100.00;102406.88;5052251;28;20052;-73
2021/12/16 06:32:39;;;;;;;39.08;21.65;;;;;;;5.18;100.00;102411.31;5043500;28;20047;-73
2021/12/16 06:35:05;;;;;;;40.35;22.20;;;;;;;5.21;100.00;102407.28;5028994;28;20023;-73
2021/12/16 06:37:30;;;;;;;40.72;21.83;;;;;;;5.22;100.00;102409.00;5050793;28;20040;-73
2021/12/16 06:39:56;;;;;;;40.65;20.25;;;;;;;5.21;100.00;102405.41;5048314;28;20024;-73
2021/12/16 06:42:23;;;;;;;38.53;19.95;;;;;;;5.22;100.00;102412.59;5066130;28;20129;-73
2021/12/16 06:44:56;;;;;;;39.80;21.23;;;;;;;5.22;100.00;102420.03;5057859;28;20051;-73
2021/12/16 06:47:29;;;;;;;41.85;22.77;;;;;;;5.20;100.00;102417.47;5054088;28;20095;-73
2021/12/16 06:49:55;;;;;;;42.33;21.85;;;;;;;5.21;100.00;102423.81;5048183;28;20061;-73
2021/12/16 06:52:26;;;;;;;39.10;21.70;;;;;;;5.21;100.00;102429.31;5043823;28;20062;-73
2021/12/16 06:55:09;;;;;;;38.60;21.02;;;;;;;5.21;100.00;102418.31;5034886;28;20090;-73
2021/12/16 06:57:43;;;;;;;40.95;21.80;;;;;;;5.22;100.00;102422.78;5051256;28;20035;-73
2021/12/16 07:00:17;;;;;;;39.28;21.35;;;;;;;5.21;100.00;102419.19;5036340;28;20043;-73
2021/12/16 07:02:56;;;;;;;37.13;20.45;;;;;;;5.23;100.00;102427.22;5042573;28;20060;-73
2021/12/16 07:05:23;;;;;;;38.10;20.83;;;;;;;5.23;100.00;102438.22;5057311;28;20020;-73
2021/12/16 07:07:49;;;;;;;37.00;19.48;;;;;;;5.24;100.00;102445.47;5077039;28;20032;-73
2021/12/16 07:10:15;;;;;;;39.38;20.15;;;;;;;5.23;100.00;102449.25;5063188;28;20035;-73
2021/12/16 07:12:46;;;;;;;34.75;19.38;;;;;;;5.27;100.00;102445.88;5069160;28;20027;-73
2021/12/16 07:15:13;;;;;;;36.45;18.00;;;;;;;5.27;100.00;102442.28;5066815;28;20400;-71
2021/12/16 07:17:39;;;;;;;41.78;20.95;;;;;;;5.26;100.00;102449.66;5062391;28;20028;-71
2021/12/16 07:20:07;;;;;;;40.22;20.23;;;;;;;5.24;100.00;102449.06;5048454;28;20393;-71
2021/12/16 07:22:34;;;;;;;37.92;20.17;;;;;;;5.24;100.00;102450.97;5044102;28;20029;-72
2021/12/16 07:25:01;;;;;;;36.20;18.73;;;;;;;5.28;100.00;102443.97;5064387;28;20020;-69
2021/12/16 07:27:27;;;;;;;35.25;17.70;;;;;;;5.27;100.00;102450.53;5074432;28;20032;-69
2021/12/16 07:29:52;;;;;;;33.67;17.48;;;;;;;5.27;100.00;102445.88;5079652;28;20114;-69
2021/12/16 07:32:18;;;;;;;29.05;16.15;;;;;;;5.28;100.00;102457.75;5062543;28;20024;-69
2021/12/16 07:34:43;;;;;;;32.00;16.67;;;;;;;5.27;100.00;102456.91;5063517;28;20033;-69
2021/12/16 07:37:09;;;;;;;27.52;15.80;;;;;;;5.26;100.00;102457.09;5061265;28;20032;-69
2021/12/16 07:39:39;;;;;;;27.70;15.30;;;;;;;5.27;100.00;102467.91;5045112;28;20037;-69
2021/12/16 07:42:06;;;;;;;26.10;14.80;;;;;;;5.24;100.00;102459.22;5063012;28;20056;-69
2021/12/16 07:44:34;;;;;;;27.00;16.38;;;;;;;5.22;100.00;102466.84;5042859;28;20032;-69
2021/12/16 07:47:01;;;;;;;29.10;16.83;;;;;;;5.20;100.00;102472.56;5081561;28;20059;-69
2021/12/16 07:49:28;;;;;;;29.52;16.42;;;;;;;5.19;100.00;102476.38;5034826;28;20028;-69
2021/12/16 07:51:54;;;;;;;28.15;16.52;;;;;;;5.18;100.00;102479.34;5063504;28;20107;-69
2021/12/16 07:54:20;;;;;;;27.20;16.45;;;;;;;5.18;100.00;102473.81;5062096;28;20035;-69
2021/12/16 07:56:46;;;;;;;29.70;17.00;;;;;;;5.15;100.00;102483.34;5065296;28;20534;-69
2021/12/16 07:59:12;;;;;;;24.55;15.75;;;;;;;5.15;100.00;102480.59;5048715;28;20048;-69
2021/12/16 08:01:38;;;;;;;27.65;16.60;;;;;;;5.18;100.00;102476.59;5065498;28;20435;-69
2021/12/16 08:04:04;;;;;;;29.50;17.30;;;;;;;5.14;100.00;102474.25;5046798;28;20106;-70
2021/12/16 08:06:29;;;;;;;28.95;17.48;;;;;;;5.16;100.00;102479.56;5067909;28;20107;-69
2021/12/16 08:09:01;;;;;;;28.67;16.42;;;;;;;5.17;100.00;102483.16;5061407;28;20082;-69
2021/12/16 08:11:27;;;;;;;30.23;16.77;;;;;;;5.13;100.00;102483.59;5057620;28;20427;-69
2021/12/16 08:13:53;;;;;;;27.60;16.08;;;;;;;5.15;100.00;102486.97;5060876;28;20032;-70
2021/12/16 08:16:22;;;;;;;27.48;15.65;;;;;;;5.13;100.00;102489.09;5046415;28;20019;-70
2021/12/16 08:18:51;;;;;;;24.90;15.18;;;;;;;5.14;100.00;102484.41;5068099;28;20028;-70
2021/12/16 08:21:17;;;;;;;27.02;15.27;;;;;;;5.14;100.00;102490.78;5084181;28;20062;-70
2021/12/16 08:23:42;;;;;;;25.02;15.23;;;;;;;5.15;100.00;102491.63;5077159;28;20032;-70
2021/12/16 08:26:08;;;;;;;25.33;14.90;;;;;;;5.16;100.00;102485.06;5063397;28;20481;-70
2021/12/16 08:28:34;;;;;;;22.02;13.73;;;;;;;5.17;100.00;102496.94;5042877;28;20484;-70
2021/12/16 08:31:00;;;;;;;23.38;14.05;;;;;;;5.17;100.00;102499.69;5090229;28;20055;-70
2021/12/16 08:33:25;;;;;;;23.58;14.73;;;;;;;5.20;100.00;102497.34;5080749;28;20555;-70
2021/12/16 08:35:52;;;;;;;23.27;13.98;;;;;;;5.19;100.00;102492.91;5070398;28;20023;-70
2021/12/16 08:38:21;;;;;;;21.80;13.57;;;;;;;5.21;100.00;102500.94;5100045;28;20499;-70
2021/12/16 08:40:47;;;;;;;20.92;12.68;;;;;;;5.23;100.00;102485.06;5079562;28;20396;-70
2021/12/16 08:43:13;;;;;;;22.10;13.88;;;;;;;5.23;100.00;102487.81;5075994;28;20039;-70
2021/12/16 08:45:39;;;;;;;23.48;13.63;;;;;;;5.24;100.00;102489.53;5045656;28;20020;-70
2021/12/16 08:48:05;;;;;;;18.42;11.98;;;;;;;5.26;100.00;102491.00;5050068;28;20036;-70
2021/12/16 08:50:32;;;;;;;20.02;12.55;;;;;;;5.28;100.00;102488.03;5079273;28;20119;-69
2021/12/16 08:52:59;;;;;;;19.45;12.23;;;;;;;5.29;100.00;102496.13;5060507;28;20597;-69
2021/12/16 08:55:25;;;;;;;19.70;12.43;;;;;;;5.31;100.00;102495.88;5049427;28;20036;-69
2021/12/16 08:57:50;;;;;;;21.50;12.40;;;;;;;5.35;100.00;102497.19;5047408;28;20028;-69
2021/12/16 09:00:20;;;;;;;18.10;12.10;;;;;;;5.34;100.00;102504.56;5096507;28;20031;-69
2021/12/16 09:02:45;;;;;;;20.77;12.75;;;;;;;5.36;100.00;102498.88;5054356;28;20433;-69
2021/12/16 09:05:11;;;;;;;20.25;12.15;;;;;;;5.37;100.00;102504.16;5070550;28;20028;-69
2021/12/16 09:07:36;;;;;;;18.77;12.00;;;;;;;5.41;100.00;102501.84;5080080;28;20038;-69
2021/12/16 09:10:03;;;;;;;18.40;11.70;;;;;;;5.43;100.00;102505.22;5078649;28;20076;-69
2021/12/16 09:14:54;;;;;;;18.27;11.75;;;;;;;5.45;100.00;102516.88;5095968;28;20035;-69
2021/12/16 09:17:19;;;;;;;20.05;12.23;;;;;;;5.48;100.00;102512.84;5048025;28;20037;-70
2021/12/16 09:19:48;;;;;;;19.75;12.60;;;;;;;5.49;100.00;102522.81;5062218;28;20036;-70
2021/12/16 09:22:16;;;;;;;17.98;11.95;;;;;;;5.51;100.00;102524.28;5050091;28;20027;-69
2021/12/16 09:24:42;;;;;;;17.58;11.32;;;;;;;5.54;100.00;102529.41;5045323;28;20099;-69
2021/12/16 09:27:08;;;;;;;16.85;11.52;;;;;;;5.55;100.00;102525.59;5066320;28;20050;-69
2021/12/16 09:29:33;;;;;;;17.95;11.63;;;;;;;5.55;100.00;102531.09;5057438;28;20086;-74
2021/12/16 09:32:02;;;;;;;19.25;11.68;;;;;;;5.59;100.00;102539.78;5049421;28;20058;-73
2021/12/16 09:34:28;;;;;;;17.13;11.23;;;;;;;5.58;100.00;102524.31;5044366;28;20080;-73
2021/12/16 09:36:53;;;;;;;18.40;12.15;;;;;;;5.58;100.00;102529.84;5064318;28;20098;-73
2021/12/16 09:39:21;;;;;;;17.70;12.10;;;;;;;5.62;100.00;102536.59;5048458;28;20024;-73
2021/12/16 09:41:48;;;;;;;18.95;12.13;;;;;;;5.63;100.00;102532.81;5079698;28;20479;-74
2021/12/16 09:44:14;;;;;;;17.80;11.30;;;;;;;5.65;100.00;102533.41;5045758;28;20073;-73
2021/12/16 09:46:43;;;;;;;16.63;11.73;;;;;;;5.65;100.00;102527.91;5045438;28;20081;-73
2021/12/16 09:49:08;;;;;;;16.13;11.05;;;;;;;5.68;100.00;102529.38;5045462;28;20389;-74
2021/12/16 09:51:35;;;;;;;16.48;11.40;;;;;;;5.69;100.00;102525.59;5060522;28;20032;-73
2021/12/16 09:54:07;;;;;;;17.48;11.70;;;;;;;5.71;100.00;102523.44;5061756;28;20032;-74
2021/12/16 09:56:32;;;;;;;17.15;12.02;;;;;;;5.74;100.00;102525.78;5050193;28;20027;-74
2021/12/16 09:58:58;;;;;;;16.00;10.27;;;;;;;5.76;100.00;102527.25;5062138;28;20020;-73
2021/12/16 10:01:24;;;;;;;17.80;11.50;;;;;;;5.79;100.00;102537.03;5031605;28;20077;-73
2021/12/16 10:03:52;;;;;;;17.05;11.30;;;;;;;5.82;100.00;102534.72;5028931;28;20082;-73
2021/12/16 10:06:18;;;;;;;18.10;11.70;;;;;;;5.85;100.00;102536.19;5080008;28;20024;-73
2021/12/16 10:08:43;;;;;;;16.15;10.85;;;;;;;5.88;100.00;102541.28;5048296;28;20028;-73
2021/12/16 10:11:10;;;;;;;16.83;11.43;;;;;;;5.90;100.00;102541.88;5065425;28;20033;-73
2021/12/16 10:14:02;;;;;;;16.55;11.32;;;;;;;5.94;100.00;102545.97;5037259;28;20032;-73
2021/12/16 10:19:13;;;;;;;16.40;10.55;;;;;;;6.02;100.00;102548.50;5078925;28;20819;-73
2021/12/16 10:21:41;;;;;;;14.48;10.07;;;;;;;6.06;100.00;102545.31;5062934;28;20548;-73
2021/12/16 10:24:29;;;;;;;16.35;11.05;;;;;;;6.11;100.00;102545.53;5045512;28;20115;-73
2021/12/16 10:27:14;;;;;;;16.08;10.55;;;;;;;6.14;100.00;102545.09;5078074;28;20046;-73
2021/12/16 10:30:04;;;;;;;15.82;10.32;;;;;;;6.18;100.00;102549.09;5054018;28;20052;-73
2021/12/16 10:32:39;;;;;;;15.10;9.23;;;;;;;6.22;100.00;102539.34;5081987;28;20131;-73
2021/12/16 10:35:30;;;;;;;13.15;9.60;;;;;;;6.23;100.00;102538.28;5092644;28;20032;-73
2021/12/16 10:37:59;;;;;;;14.50;10.15;;;;;;;6.25;100.00;102541.69;5058099;28;20044;-73
2021/12/16 10:40:30;;;;;;;16.60;10.73;;;;;;;6.27;100.00;102539.56;5082283;28;20068;-73
2021/12/16 10:42:57;;;;;;;16.75;9.93;;;;;;;6.30;100.00;102543.81;5080580;28;20500;-73
2021/12/16 10:45:49;;;;;;;15.45;10.60;;;;;;;6.32;100.00;102531.44;5067461;28;20021;-73
2021/12/16 10:48:24;;;;;;;15.05;10.27;;;;;;;6.35;100.00;102530.19;5083983;28;20060;-73
2021/12/16 10:50:50;;;;;;;15.57;10.18;;;;;;;6.37;100.00;102528.91;5091842;28;20096;-73
2021/12/16 10:53:17;;;;;;;14.73;10.15;;;;;;;6.41;100.00;102526.56;5059311;28;20093;-73
2021/12/16 10:55:58;;;;;;;16.27;9.90;;;;;;;6.45;100.00;102525.91;5085349;28;20712;-73
2021/12/16 10:58:50;;;;;;;14.48;8.73;;;;;;;6.49;100.00;102520.78;5053181;28;20031;-73
2021/12/16 11:01:42;;;;;;;14.32;10.02;;;;;;;6.54;100.00;102520.97;5094095;28;20059;-73
2021/12/16 11:04:20;;;;;;;14.55;9.05;;;;;;;6.59;100.00;102523.09;5083385;28;20029;-73
2021/12/16 11:07:09;;;;;;;13.93;9.60;;;;;;;6.60;100.00;102525.66;5082370;28;20035;-73
2021/12/16 11:10:00;;;;;;;14.23;9.45;;;;;;;6.65;100.00;102519.47;5099887;28;20031;-73
2021/12/16 11:12:30;;;;;;;14.07;9.48;;;;;;;6.71;100.00;102513.06;5080254;28;20046;-73
2021/12/16 11:14:59;;;;;;;14.70;9.23;;;;;;;6.78;100.00;102513.88;5085304;28;20060;-73
2021/12/16 11:17:29;;;;;;;14.52;9.70;;;;;;;6.92;100.00;102518.28;5080311;28;20043;-73
2021/12/16 11:20:32;;;;;;;13.38;9.32;;;;;;;6.95;100.00;102508.69;5080045;28;20084;-73
2021/12/16 11:23:00;;;;;;;13.43;9.10;;;;;;;7.02;100.00;102508.66;5076448;28;20051;-73
2021/12/16 11:25:28;;;;;;;13.48;8.60;;;;;;;7.02;100.00;102504.00;5093401;28;20052;-73
2021/12/16 11:28:13;;;;;;;12.63;8.88;;;;;;;7.05;100.00;102506.31;5097074;28;20046;-73
2021/12/16 11:30:43;;;;;;;14.38;8.73;;;;;;;7.05;100.00;102503.53;5063262;28;20370;-73
2021/12/16 11:33:38;;;;;;;13.30;8.93;;;;;;;7.06;100.00;102501.63;5076083;28;20054;-73
2021/12/16 11:36:08;;;;;;;12.18;8.18;;;;;;;7.09;100.00;102503.94;5081089;28;20064;-73
2021/12/16 11:39:01;;;;;;;12.15;8.85;;;;;;;7.11;100.00;102507.34;5077370;28;20063;-73
2021/12/16 11:41:38;;;;;;;13.65;9.05;;;;;;;7.16;100.00;102504.75;5080325;28;20028;-73
2021/12/16 11:44:17;;;;;;;11.48;8.70;;;;;;;7.20;100.00;102499.63;5078744;28;20119;-73
2021/12/16 11:46:46;;;;;;;12.00;9.00;;;;;;;7.21;100.00;102496.63;5078438;28;20099;-73
2021/12/16 11:49:33;;;;;;;12.40;8.70;;;;;;;7.23;100.00;102504.69;5065449;28;20046;-70
2021/12/16 11:52:14;;;;;;;12.75;8.95;;;;;;;7.27;100.00;102514.22;5059098;28;20082;-70
2021/12/16 11:54:56;;;;;;;11.57;8.27;;;;;;;7.34;100.00;102506.75;5078723;28;20139;-70
2021/12/16 11:57:32;;;;;;;9.43;7.53;;;;;;;7.35;100.00;102502.91;5065665;28;20032;-70
2021/12/16 12:00:01;;;;;;;11.38;7.80;;;;;;;7.31;100.00;102508.03;5097677;28;20035;-70
2021/12/16 12:02:33;;;;;;;9.88;7.65;;;;;;;7.32;100.00;102501.44;5100060;28;20028;-70
2021/12/16 12:05:22;;;;;;;12.27;7.85;;;;;;;7.36;100.00;102499.09;5096045;28;20077;-69
2021/12/16 12:08:03;;;;;;;10.55;6.82;;;;;;;7.36;100.00;102499.94;5076149;28;20436;-70
2021/12/16 12:10:59;;;;;;;9.90;7.22;;;;;;;7.38;100.00;102508.84;5061121;28;20027;-70
2021/12/16 12:13:42;;;;;;;10.35;7.63;;;;;;;7.38;100.00;102507.97;5079297;28;20087;-70
2021/12/16 12:16:13;;;;;;;11.80;7.75;;;;;;;7.38;100.00;102510.75;5099809;28;20051;-69
2021/12/16 12:18:50;;;;;;;10.20;7.30;;;;;;;7.41;100.00;102504.78;5078345;28;20565;-70
2021/12/16 12:21:19;;;;;;;9.32;6.90;;;;;;;7.39;100.00;102498.63;5098392;28;20158;-70
2021/12/16 12:23:45;;;;;;;10.25;7.30;;;;;;;7.36;100.00;102499.94;5095477;28;20051;-70
2021/12/16 12:26:16;;;;;;;10.20;7.18;;;;;;;7.37;100.00;102504.38;5068549;28;20052;-70
2021/12/16 12:28:53;;;;;;;9.85;6.60;;;;;;;7.41;100.00;102495.63;5062850;28;20024;-71
2021/12/16 12:31:20;;;;;;;9.02;6.28;;;;;;;7.45;100.00;102496.88;5058137;28;20024;-70
2021/12/16 12:33:46;;;;;;;11.20;6.30;;;;;;;7.44;100.00;102492.41;5054595;28;20039;-70
2021/12/16 12:36:12;;;;;;;8.90;7.00;;;;;;;7.43;100.00;102487.97;5081179;28;20376;-70
2021/12/16 12:38:38;;;;;;;9.13;6.50;;;;;;;7.44;100.00;102492.41;5064120;28;20392;-69
2021/12/16 12:41:04;;;;;;;12.90;7.78;;;;;;;7.46;100.00;102487.50;5059985;28;20028;-70
2021/12/16 12:43:33;;;;;;;11.88;7.32;;;;;;;7.48;100.00;102491.75;5053879;28;20036;-70
2021/12/16 12:45:59;;;;;;;8.13;5.80;;;;;;;7.49;100.00;102487.06;5074656;28;20426;-70
2021/12/16 12:48:24;;;;;;;9.50;6.20;;;;;;;7.53;100.00;102482.78;5065636;28;20031;-70
2021/12/16 12:50:51;;;;;;;10.13;6.45;;;;;;;7.55;100.00;102480.63;5082998;28;20039;-69
2021/12/16 12:53:17;;;;;;;8.57;6.10;;;;;;;7.58;100.00;102482.97;5057294;28;20046;-72
2021/12/16 12:55:43;;;;;;;8.50;5.90;;;;;;;7.59;100.00;102481.88;5059589;28;20028;-72
2021/12/16 12:58:14;;;;;;;9.00;5.93;;;;;;;7.61;100.00;102483.34;5079352;28;20067;-72
2021/12/16 13:00:47;;;;;;;10.52;6.00;;;;;;;7.64;100.00;102484.81;5080448;28;20480;-72
2021/12/16 13:03:17;;;;;;;;;;;;;;;7.65;100.00;102474.59;5063020;28;20450;-72
2021/12/16 13:05:51;;;;;;;7.93;5.10;;;;;;;7.68;100.00;102479.66;5073630;28;20389;-73
2021/12/16 13:08:19;;;;;;;8.15;5.78;;;;;;;7.67;100.00;102481.59;5037423;28;20495;-72
2021/12/16 13:10:46;;;;;;;7.65;5.22;;;;;;;7.71;100.00;102476.44;5051265;28;20032;-72
2021/12/16 13:13:31;;;;;;;6.90;4.68;;;;;;;7.71;100.00;102474.53;5061966;28;20032;-72
2021/12/16 13:29:38;;;;;;;7.03;4.85;;;;;;;7.79;100.00;102479.75;5077146;28;20051;-72
2021/12/16 13:34:48;;;;;;;9.13;4.88;;;;;;;7.80;100.00;102473.19;5082702;28;20039;-72
2021/12/16 13:37:22;;;;;;;9.23;5.30;;;;;;;7.82;100.00;102471.00;5073859;28;20038;-73
2021/12/16 13:39:50;;;;;;;7.70;4.78;;;;;;;7.88;100.00;102474.78;5058872;28;20041;-72
2021/12/16 13:42:16;;;;;;;7.85;4.95;;;;;;;7.86;100.00;102476.09;5044573;28;20024;-72
2021/12/16 13:44:47;;;;;;;7.88;5.93;;;;;;;7.80;100.00;102478.72;5061459;28;20960;-72
2021/12/16 13:47:29;;;;;;;8.00;5.18;;;;;;;7.81;100.00;102480.38;5079774;28;20032;-72
2021/12/16 14:01:56;;;;;;;7.35;5.45;;;;;;;7.74;100.00;102465.75;5072451;28;20087;-72
2021/12/16 14:10:00;;;;;;;10.57;6.25;;;;;;;7.73;100.00;102457.72;5060225;28;20533;-72
2021/12/16 14:15:26;;;;;;;9.23;6.00;;;;;;;7.75;100.00;102453.66;5050654;28;20036;-72
2021/12/16 14:18:09;;;;;;;10.23;6.45;;;;;;;7.74;100.00;102454.69;5067268;28;20027;-72
2021/12/16 14:23:40;;;;;;;10.05;6.40;;;;;;;7.73;100.00;102453.03;5061571;28;20090;-72
2021/12/16 14:26:39;;;;;;;8.57;6.40;;;;;;;7.74;100.00;102440.03;5056876;28;20060;-72
2021/12/16 14:32:24;;;;;;;11.90;6.78;;;;;;;7.71;100.00;102444.09;5072514;28;20491;-72
2021/12/16 14:37:50;;;;;;;9.95;5.80;;;;;;;7.71;100.00;102448.78;5062805;28;20115;-72
2021/12/16 14:40:13;;;;;;;11.88;6.40;;;;;;;7.71;100.00;102446.03;5066746;28;20520;-72
2021/12/16 14:45:28;;;;;;;11.25;6.40;;;;;;;7.70;100.00;102458.16;5063036;28;20055;-71
2021/12/16 14:48:05;;;;;;;10.50;6.40;;;;;;;7.68;100.00;102452.84;5081578;28;20090;-72
2021/12/16 14:50:40;;;;;;;10.95;6.70;;;;;;;7.70;100.00;102449.88;5051675;28;20024;-72